TimeCST,TemperatureF,Dew PointF,Humidity,Sea Level PressureIn,VisibilityMPH,Wind Direction,Wind SpeedMPH,Gust SpeedMPH,PrecipitationIn,Events,Conditions,WindDirDegrees,DateUTC
12:52 AM,33.1,26.1,75,30.24,10.0,Calm,Calm,-,N/A,,Clear,0,2013-01-20 06:52:00
1:52 AM,30.9,24.1,76,30.25,10.0,NNE,6.9,-,N/A,,Clear,20,2013-01-20 07:52:00
2:52 AM,30.0,24.1,79,30.27,10.0,North,5.8,-,N/A,,Clear,10,2013-01-20 08:52:00
3:52 AM,35.1,27.0,72,30.27,10.0,NNE,8.1,-,N/A,,Clear,30,2013-01-20 09:52:00
4:52 AM,30.9,25.0,79,30.27,10.0,NNE,5.8,-,N/A,,Clear,20,2013-01-20 10:52:00
5:52 AM,27.0,21.9,81,30.30,10.0,North,3.5,-,N/A,,Clear,350,2013-01-20 11:52:00
6:52 AM,30.9,25.0,79,30.28,10.0,NE,5.8,-,N/A,,Clear,50,2013-01-20 12:52:00
7:52 AM,30.0,25.0,82,30.29,10.0,NNE,4.6,-,N/A,,Clear,30,2013-01-20 13:52:00
8:52 AM,36.0,28.9,76,30.31,10.0,NNE,4.6,-,N/A,,Clear,20,2013-01-20 14:52:00
9:52 AM,39.9,28.9,65,30.32,10.0,ENE,8.1,-,N/A,,Clear,60,2013-01-20 15:52:00
10:52 AM,45.0,23.0,42,30.30,10.0,East,10.4,-,N/A,,Clear,90,2013-01-20 16:52:00
11:52 AM,48.9,21.9,35,30.25,10.0,East,6.9,-,N/A,,Clear,90,2013-01-20 17:52:00
12:52 PM,51.1,25.0,36,30.21,10.0,ENE,8.1,-,N/A,,Clear,60,2013-01-20 18:52:00
1:52 PM,53.1,25.0,34,30.20,10.0,Variable,6.9,-,N/A,,Clear,0,2013-01-20 19:52:00
2:52 PM,54.0,25.0,33,30.19,10.0,NE,5.8,-,N/A,,Clear,50,2013-01-20 20:52:00
3:52 PM,53.1,25.0,34,30.19,10.0,NNE,10.4,-,N/A,,Clear,30,2013-01-20 21:52:00
4:52 PM,50.0,21.9,33,30.21,10.0,NNE,13.8,-,N/A,,Clear,30,2013-01-20 22:52:00
5:52 PM,43.0,21.0,42,30.23,10.0,NNE,11.5,-,N/A,,Clear,30,2013-01-20 23:52:00
6:52 PM,39.9,19.0,43,30.26,10.0,NNE,11.5,-,N/A,,Clear,20,2013-01-21 00:52:00
7:52 PM,37.0,19.0,48,30.30,10.0,North,11.5,-,N/A,,Clear,10,2013-01-21 01:52:00
8:52 PM,33.1,16.0,50,30.33,10.0,North,17.3,21.9,N/A,,Clear,10,2013-01-21 02:52:00
9:52 PM,30.9,14.0,50,30.36,10.0,NNE,15.0,-,N/A,,Clear,20,2013-01-21 03:52:00
10:52 PM,30.0,14.0,51,30.36,10.0,NNE,9.2,-,N/A,,Clear,20,2013-01-21 04:52:00
11:52 PM,30.0,15.1,54,30.37,10.0,North,10.4,-,N/A,,Clear,10,2013-01-21 05:52:00